PPL, ces minutes fugaces ne.

PPL, ces minutes fugaces ne.

PPL, ces minutes fugaces ne quitteront jamais ma mémoire et feront parties de ces rêves de Pilote les plus chéris de ma vie 😉
Merci à Stéphane pour l’accueil, nos échanges et ton professionnalisme et un grand merci à Renan ces instants de partage magnifiques !

Poupard Pascal

Voir toute les actualités.

Avion / Hélicoptère / Simulateur*
Avion
METAR :

LFQA 020600Z AUTO 11006KT CAVOK 04/04 Q1000


vue en direct sur l'aérodrome
facturation mentions légales politique de confidentialité
Cochet Concept
cx